Terminal Aerodrome Forecast
Issued by NWS

Current Version | Previous Version | Text Only | Print | Product List | Glossary On
Versions: 1 2 3 4 5 6 7 8 9 10 11 12 13
373
FTUS43 KDLH 242324
TAFHYR
TAF
KHYR 242324Z 2500/2524 01008KT P6SM FEW050
     FM250200 VRB03KT P6SM SKC
     FM251700 23007KT P6SM SCT250=

USA.gov is the U.S. government's official web portal to all federal, state and local government web resources and services.